Time;durP1;ratioP1;P1;durP2;ratioP2;P2;SDS_P1;SDS_P2;PMS_P1;PMS_P2;Temp;Humidity;BMP_temperature;BMP_pressure;BME280_temperature;BME280_humidity;BME280_pressure;Samples;Min_cycle;Max_cycle;Signal;HPM_P1;HPM_P2
2023/11/30 00:00:10;;;;;;;8.35;4.10;;;2.40;99.90;;;;;;4984650;28;20035;-65
2023/11/30 00:02:36;;;;;;;6.00;3.55;;;2.30;99.90;;;;;;4992928;28;20030;-65
2023/11/30 00:05:06;;;;;;;7.95;3.92;;;2.40;99.90;;;;;;4982399;28;20085;-65
2023/11/30 00:07:33;;;;;;;7.88;4.70;;;2.30;99.90;;;;;;4993664;28;20137;-65
2023/11/30 00:09:58;;;;;;;7.15;4.28;;;2.40;99.90;;;;;;4981842;28;20037;-65
2023/11/30 00:12:24;;;;;;;7.68;4.13;;;2.30;99.90;;;;;;4988537;28;20034;-65
2023/11/30 00:14:50;;;;;;;9.63;5.10;;;2.30;99.90;;;;;;4987874;28;20035;-65
2023/11/30 00:17:16;;;;;;;9.15;5.07;;;2.30;99.90;;;;;;4995307;28;20052;-65
2023/11/30 00:19:42;;;;;;;8.10;4.60;;;2.30;99.90;;;;;;4986175;28;20035;-65
2023/11/30 00:22:08;;;;;;;9.05;4.72;;;2.20;99.90;;;;;;4986089;28;20037;-65
2023/11/30 00:24:33;;;;;;;7.72;4.15;;;2.20;99.90;;;;;;4987685;28;20050;-66
2023/11/30 00:26:59;;;;;;;7.93;4.63;;;2.20;99.90;;;;;;4984115;28;20085;-66
2023/11/30 00:29:25;;;;;;;5.85;3.80;;;2.20;99.90;;;;;;4987656;28;20041;-66
2023/11/30 00:31:51;;;;;;;6.82;3.83;;;2.10;99.90;;;;;;4998340;28;20406;-66
2023/11/30 00:34:17;;;;;;;6.47;4.32;;;2.00;99.90;;;;;;5002610;28;20033;-66
2023/11/30 00:36:43;;;;;;;7.90;4.43;;;2.00;99.90;;;;;;4982875;28;20030;-66
2023/11/30 00:39:09;;;;;;;8.05;4.50;;;2.00;99.90;;;;;;4981556;28;20031;-66
2023/11/30 00:41:34;;;;;;;7.55;4.18;;;2.00;99.90;;;;;;4982851;28;20042;-66
2023/11/30 00:44:00;;;;;;;6.53;3.88;;;2.00;99.90;;;;;;4987022;28;20027;-66
2023/11/30 00:46:26;;;;;;;5.88;3.55;;;2.00;99.90;;;;;;4990225;28;20038;-66
2023/11/30 00:48:52;;;;;;;7.32;4.00;;;1.90;99.90;;;;;;4987350;28;20030;-66
2023/11/30 00:51:18;;;;;;;7.53;4.15;;;1.90;99.90;;;;;;4981002;28;20041;-66
2023/11/30 00:53:43;;;;;;;9.40;4.63;;;1.80;99.90;;;;;;4986782;28;20038;-66
2023/11/30 00:56:11;;;;;;;5.88;3.78;;;1.80;99.90;;;;;;4996338;28;20243;-66
2023/11/30 00:58:38;;;;;;;10.32;4.20;;;1.80;99.90;;;;;;4990589;28;20104;-66
2023/11/30 01:01:04;;;;;;;6.00;3.70;;;1.80;99.90;;;;;;4999575;28;20034;-66
2023/11/30 01:03:30;;;;;;;8.55;4.20;;;1.70;99.90;;;;;;4993128;28;20045;-66
2023/11/30 01:05:55;;;;;;;8.18;4.10;;;1.70;99.90;;;;;;4978059;28;20038;-67
2023/11/30 01:08:21;;;;;;;7.57;3.72;;;1.70;99.90;;;;;;4994303;28;20050;-67
2023/11/30 01:10:47;;;;;;;6.82;4.30;;;1.60;99.90;;;;;;4987781;28;20043;-66
2023/11/30 01:13:13;;;;;;;7.05;4.00;;;1.60;99.90;;;;;;4991785;28;20476;-67
2023/11/30 01:15:39;;;;;;;8.45;4.35;;;1.60;99.90;;;;;;5000252;28;20030;-67
2023/11/30 01:18:05;;;;;;;7.50;4.10;;;1.50;99.90;;;;;;4990925;28;20030;-67
2023/11/30 01:20:32;;;;;;;9.23;4.43;;;1.50;99.90;;;;;;4984248;28;20033;-67
2023/11/30 01:22:58;;;;;;;8.20;4.13;;;1.50;99.90;;;;;;5005415;28;20042;-67
2023/11/30 01:25:24;;;;;;;7.63;3.70;;;1.40;99.90;;;;;;4985967;28;20049;-67
2023/11/30 01:27:53;;;;;;;10.00;4.20;;;1.40;99.90;;;;;;4988474;28;20487;-67
2023/11/30 01:30:19;;;;;;;7.57;4.05;;;1.30;99.90;;;;;;4986435;28;20116;-67
2023/11/30 01:32:45;;;;;;;8.18;4.28;;;1.30;99.90;;;;;;4982818;28;20034;-67
2023/11/30 01:35:11;;;;;;;8.77;4.60;;;1.30;99.90;;;;;;4985647;28;20043;-67
2023/11/30 01:37:40;;;;;;;7.63;4.70;;;1.20;99.90;;;;;;4980929;28;20058;-67
2023/11/30 01:40:09;;;;;;;9.25;4.63;;;1.10;99.90;;;;;;4996670;28;20110;-67
2023/11/30 01:42:36;;;;;;;8.57;4.43;;;1.10;99.90;;;;;;4982858;28;20029;-67
2023/11/30 01:45:03;;;;;;;8.65;4.65;;;1.00;99.90;;;;;;4988279;28;20036;-67
2023/11/30 01:47:30;;;;;;;8.68;4.60;;;1.00;99.90;;;;;;4989794;28;20080;-67
2023/11/30 01:49:57;;;;;;;9.82;4.97;;;0.90;99.90;;;;;;4999982;28;20133;-67
2023/11/30 01:52:23;;;;;;;8.57;4.90;;;0.90;99.90;;;;;;4983813;28;20120;-66
2023/11/30 01:54:49;;;;;;;6.65;4.40;;;0.90;99.90;;;;;;4987415;28;20061;-67
2023/11/30 01:57:16;;;;;;;11.45;5.03;;;0.80;99.90;;;;;;4982813;28;20026;-67
2023/11/30 01:59:44;;;;;;;10.68;5.43;;;0.80;99.90;;;;;;4989749;28;20026;-67
2023/11/30 02:02:11;;;;;;;8.45;5.07;;;0.80;99.90;;;;;;4981497;28;20058;-67
2023/11/30 02:04:40;;;;;;;8.80;4.10;;;0.70;99.90;;;;;;4992545;28;20705;-67
2023/11/30 02:07:06;;;;;;;11.68;4.85;;;0.70;99.90;;;;;;4979432;28;20047;-67
2023/11/30 02:09:32;;;;;;;8.30;4.93;;;0.70;99.90;;;;;;4991328;28;20042;-67
2023/11/30 02:11:58;;;;;;;9.88;5.65;;;0.70;99.90;;;;;;4980541;28;20045;-67
2023/11/30 02:14:24;;;;;;;10.88;5.47;;;0.70;99.90;;;;;;5000448;28;20042;-67
2023/11/30 02:16:49;;;;;;;12.75;5.00;;;0.70;99.90;;;;;;4986351;28;20482;-67
2023/11/30 02:19:15;;;;;;;10.23;5.38;;;0.70;99.90;;;;;;4992539;28;20066;-67
2023/11/30 02:21:51;;;;;;;8.02;4.75;;;0.60;99.90;;;;;;4986262;28;20115;-67
2023/11/30 02:24:18;;;;;;;10.18;5.30;;;0.70;99.90;;;;;;4989993;28;20399;-67
2023/11/30 02:26:44;;;;;;;8.95;4.53;;;0.60;99.90;;;;;;4994929;28;20045;-67
2023/11/30 02:29:12;;;;;;;10.23;5.28;;;0.70;99.90;;;;;;5005854;28;20041;-67
2023/11/30 02:31:38;;;;;;;10.02;5.05;;;0.70;99.90;;;;;;4995581;28;20194;-67
2023/11/30 02:34:04;;;;;;;9.45;5.32;;;0.70;99.90;;;;;;4989205;28;20424;-67
2023/11/30 02:36:29;;;;;;;13.50;5.10;;;0.70;99.90;;;;;;4984511;28;20141;-67
2023/11/30 02:38:55;;;;;;;11.82;5.95;;;0.80;99.90;;;;;;4998144;28;20022;-67
2023/11/30 02:41:21;;;;;;;9.23;4.57;;;0.70;99.90;;;;;;4986681;28;20061;-67
2023/11/30 02:43:47;;;;;;;8.77;4.63;;;0.70;99.90;;;;;;4995830;28;20041;-67
2023/11/30 02:46:13;;;;;;;8.45;4.95;;;0.80;99.90;;;;;;4999318;28;20549;-67
2023/11/30 02:48:39;;;;;;;9.70;5.05;;;0.80;99.90;;;;;;5003224;28;20092;-67
2023/11/30 02:51:05;;;;;;;7.88;4.80;;;0.80;99.90;;;;;;4986761;28;20076;-67
2023/11/30 02:53:31;;;;;;;9.93;4.72;;;0.80;99.90;;;;;;4979785;28;20057;-66
2023/11/30 02:56:00;;;;;;;8.95;4.72;;;0.80;99.90;;;;;;4981917;28;20070;-67
2023/11/30 02:58:25;;;;;;;10.02;4.78;;;0.70;99.90;;;;;;4981431;28;20397;-67
2023/11/30 03:00:51;;;;;;;9.70;4.40;;;0.70;99.90;;;;;;4983662;28;20034;-67
2023/11/30 03:03:17;;;;;;;8.85;4.70;;;0.70;99.90;;;;;;4996761;28;20107;-67
2023/11/30 03:05:43;;;;;;;9.48;4.97;;;0.70;99.90;;;;;;4996886;28;20038;-67
2023/11/30 03:08:09;;;;;;;12.38;5.40;;;0.60;99.90;;;;;;4994946;28;20064;-67
2023/11/30 03:10:35;;;;;;;9.82;5.22;;;0.60;99.90;;;;;;4996929;28;20053;-67
2023/11/30 03:13:01;;;;;;;9.43;5.05;;;0.70;99.90;;;;;;4998637;28;20034;-67
2023/11/30 03:15:29;;;;;;;10.98;4.63;;;0.60;99.90;;;;;;4990467;28;20045;-67
2023/11/30 03:17:55;;;;;;;10.73;4.82;;;0.60;99.90;;;;;;4977058;28;20398;-67
2023/11/30 03:20:21;;;;;;;8.60;5.50;;;0.60;99.90;;;;;;4998389;28;20026;-67
2023/11/30 03:22:47;;;;;;;9.43;5.35;;;0.60;99.90;;;;;;4976147;28;20035;-67
2023/11/30 03:25:13;;;;;;;9.70;5.05;;;0.60;99.90;;;;;;4989493;28;20031;-67
2023/11/30 03:27:39;;;;;;;9.20;5.38;;;0.60;99.90;;;;;;4984833;28;20030;-66
2023/11/30 03:30:06;;;;;;;10.77;5.22;;;0.60;99.90;;;;;;4988957;28;20096;-67
2023/11/30 03:32:32;;;;;;;8.43;3.97;;;0.60;99.90;;;;;;4980225;28;20033;-66
2023/11/30 03:34:58;;;;;;;12.40;5.35;;;0.60;99.90;;;;;;4986213;28;20096;-67
2023/11/30 03:37:24;;;;;;;12.32;5.93;;;0.60;99.90;;;;;;4983707;28;20034;-67
2023/11/30 03:39:50;;;;;;;9.65;5.10;;;0.60;99.90;;;;;;4999524;28;20030;-67
2023/11/30 03:42:18;;;;;;;10.52;5.28;;;0.60;99.90;;;;;;4981196;28;20133;-67
2023/11/30 03:44:44;;;;;;;14.68;6.03;;;0.60;99.90;;;;;;4986482;28;20852;-67
2023/11/30 03:47:09;;;;;;;10.20;5.55;;;0.60;99.90;;;;;;4982528;28;20511;-67
2023/11/30 03:49:35;;;;;;;10.77;5.55;;;0.60;99.90;;;;;;4987122;28;20038;-67
2023/11/30 03:52:01;;;;;;;9.68;4.90;;;0.50;99.90;;;;;;4980420;28;20066;-66
2023/11/30 03:54:27;;;;;;;8.60;4.78;;;0.50;99.90;;;;;;4985291;28;20033;-67
2023/11/30 03:56:53;;;;;;;11.98;5.57;;;0.40;99.90;;;;;;4982000;28;20402;-67
2023/11/30 03:59:19;;;;;;;9.63;4.93;;;0.40;99.90;;;;;;4987355;28;20429;-67
2023/11/30 04:01:45;;;;;;;11.40;5.30;;;0.30;99.90;;;;;;4983133;28;20030;-67
2023/11/30 04:04:12;;;;;;;9.77;5.03;;;0.30;99.90;;;;;;4986124;28;20054;-67
2023/11/30 04:06:38;;;;;;;10.65;5.03;;;0.20;99.90;;;;;;4986837;28;20053;-67
2023/11/30 04:09:05;;;;;;;10.52;5.35;;;0.20;99.90;;;;;;4976998;28;20050;-67
2023/11/30 04:11:31;;;;;;;14.80;5.68;;;0.10;99.90;;;;;;4986540;28;20141;-67
2023/11/30 04:14:07;;;;;;;9.73;5.20;;;0.10;99.90;;;;;;4974213;28;20036;-67
2023/11/30 04:16:34;;;;;;;11.15;5.28;;;0.00;99.90;;;;;;4987825;28;20066;-67
2023/11/30 04:19:01;;;;;;;9.52;5.20;;;0.00;99.90;;;;;;4991653;28;20038;-67
2023/11/30 04:21:27;;;;;;;10.50;4.88;;;0.00;99.90;;;;;;4994398;28;20034;-67
2023/11/30 04:23:52;;;;;;;13.82;6.03;;;-0.10;99.90;;;;;;4974335;28;20442;-67
2023/11/30 04:26:18;;;;;;;12.48;5.57;;;-0.10;99.90;;;;;;4987125;28;20069;-67
2023/11/30 04:28:44;;;;;;;10.73;5.13;;;-0.10;99.90;;;;;;4975556;28;20054;-67
2023/11/30 04:31:10;;;;;;;12.55;5.43;;;-0.20;99.90;;;;;;4982940;28;20035;-66
2023/11/30 04:33:36;;;;;;;9.57;4.88;;;-0.20;99.90;;;;;;4982013;28;20562;-67
2023/11/30 04:36:02;;;;;;;12.48;5.10;;;-0.20;99.90;;;;;;4984518;28;20022;-67
2023/11/30 04:38:29;;;;;;;11.05;5.93;;;-0.30;99.90;;;;;;4982778;28;20048;-67
2023/11/30 04:40:58;;;;;;;12.65;5.38;;;-0.30;99.90;;;;;;4984794;28;20030;-67
2023/11/30 04:43:23;;;;;;;12.68;5.15;;;-0.40;99.90;;;;;;4987225;28;20040;-67
2023/11/30 04:45:50;;;;;;;11.70;4.88;;;-0.50;99.90;;;;;;5003552;28;20036;-67
2023/11/30 04:48:16;;;;;;;12.25;5.30;;;-0.50;99.90;;;;;;4999652;28;20076;-67
2023/11/30 04:50:42;;;;;;;12.15;5.88;;;-0.50;99.90;;;;;;4983220;28;20072;-66
2023/11/30 04:53:07;;;;;;;11.60;5.40;;;-0.60;99.90;;;;;;4999156;28;20054;-67
2023/11/30 04:55:33;;;;;;;10.73;5.65;;;-0.60;99.90;;;;;;5004705;28;20391;-67
2023/11/30 04:57:59;;;;;;;14.50;5.88;;;-0.60;99.90;;;;;;4984314;28;20043;-67
2023/11/30 05:00:25;;;;;;;14.80;5.72;;;-0.60;99.90;;;;;;5004011;28;20084;-66
2023/11/30 05:02:55;;;;;;;11.23;5.85;;;-0.60;99.90;;;;;;4984578;28;20148;-67
2023/11/30 05:05:22;;;;;;;11.40;5.55;;;-0.60;99.90;;;;;;4989665;28;20041;-67
2023/11/30 05:07:50;;;;;;;11.80;5.18;;;-0.60;99.90;;;;;;4985004;28;20088;-67
2023/11/30 05:10:16;;;;;;;11.77;5.60;;;-0.60;99.90;;;;;;4996930;28;20041;-67
2023/11/30 05:12:43;;;;;;;10.23;4.82;;;-0.50;99.90;;;;;;4991867;28;20034;-67
2023/11/30 05:15:09;;;;;;;10.13;5.53;;;-0.50;99.90;;;;;;4986872;28;20035;-67
2023/11/30 05:17:35;;;;;;;9.65;5.70;;;-0.40;99.90;;;;;;4994087;28;20065;-67
2023/11/30 05:20:03;;;;;;;7.90;4.95;;;-0.40;99.90;;;;;;4985773;28;20034;-67
2023/11/30 05:22:29;;;;;;;10.57;5.15;;;-0.30;99.90;;;;;;4988877;28;20494;-67
2023/11/30 05:24:55;;;;;;;14.00;5.90;;;-0.20;99.90;;;;;;4984585;28;20038;-67
2023/11/30 05:27:20;;;;;;;11.05;5.90;;;-0.10;99.90;;;;;;4984176;28;20520;-67
2023/11/30 05:29:46;;;;;;;12.90;5.72;;;-0.10;99.90;;;;;;4978895;28;20042;-66
2023/11/30 05:32:12;;;;;;;9.38;5.18;;;0.00;99.90;;;;;;4989904;28;20046;-67
2023/11/30 05:34:38;;;;;;;11.75;5.60;;;0.00;99.90;;;;;;4990515;28;20088;-67
2023/11/30 05:37:04;;;;;;;10.45;5.53;;;0.00;99.90;;;;;;4988802;28;20035;-66
2023/11/30 05:39:31;;;;;;;12.05;5.97;;;0.10;99.90;;;;;;4981339;28;20391;-67
2023/11/30 05:41:58;;;;;;;13.00;5.57;;;0.10;99.90;;;;;;4981350;28;20041;-67
2023/11/30 05:44:24;;;;;;;13.40;5.70;;;0.20;99.90;;;;;;4982794;28;20026;-67
2023/11/30 05:46:50;;;;;;;11.90;5.40;;;0.20;99.90;;;;;;4986613;28;20442;-67
2023/11/30 05:49:16;;;;;;;10.73;5.53;;;0.20;99.90;;;;;;4985642;28;20037;-67
2023/11/30 05:51:42;;;;;;;12.70;5.93;;;0.20;99.90;;;;;;4987163;28;20050;-67
2023/11/30 05:54:11;;;;;;;10.63;5.60;;;0.20;99.90;;;;;;4981486;28;20588;-67
2023/11/30 05:56:36;;;;;;;12.20;5.50;;;0.30;99.90;;;;;;4988012;28;20030;-67
2023/11/30 05:59:02;;;;;;;10.75;5.05;;;0.30;99.90;;;;;;4985570;28;20438;-67
2023/11/30 06:01:28;;;;;;;10.10;5.18;;;0.30;99.90;;;;;;4987527;28;20030;-66
2023/11/30 06:03:55;;;;;;;10.57;5.50;;;0.30;99.90;;;;;;4985316;28;20039;-67
2023/11/30 06:06:21;;;;;;;10.07;5.65;;;0.30;99.90;;;;;;4987587;28;20038;-67
2023/11/30 06:08:47;;;;;;;11.98;5.15;;;0.40;99.90;;;;;;4983205;28;20036;-67
2023/11/30 06:11:15;;;;;;;10.65;5.50;;;0.40;99.90;;;;;;4986776;28;20038;-67
2023/11/30 06:13:41;;;;;;;11.18;5.85;;;0.40;99.90;;;;;;4982678;28;20045;-67
2023/11/30 06:16:08;;;;;;;17.42;6.78;;;0.40;99.90;;;;;;4988620;28;20027;-67
2023/11/30 06:18:34;;;;;;;10.30;5.40;;;0.30;99.90;;;;;;4986128;28;20441;-67
2023/11/30 06:21:00;;;;;;;14.10;6.32;;;0.30;99.90;;;;;;4987777;28;20091;-66
2023/11/30 06:23:25;;;;;;;11.93;5.85;;;0.20;99.90;;;;;;4987728;28;20486;-67
2023/11/30 06:25:51;;;;;;;16.05;5.95;;;0.10;99.90;;;;;;4983427;28;20038;-67
2023/11/30 06:28:17;;;;;;;13.90;5.85;;;0.10;99.90;;;;;;4988239;28;20033;-67
2023/11/30 06:30:44;;;;;;;11.15;5.60;;;0.00;99.90;;;;;;4983867;28;20034;-67
2023/11/30 06:33:10;;;;;;;16.30;6.35;;;-0.10;99.90;;;;;;4986506;28;20086;-67
2023/11/30 06:35:36;;;;;;;20.17;7.43;;;-0.10;99.90;;;;;;4979738;28;20034;-67
2023/11/30 06:38:02;;;;;;;16.33;6.90;;;-0.10;99.90;;;;;;4984143;28;20838;-67
2023/11/30 06:40:28;;;;;;;13.38;6.40;;;-0.10;99.90;;;;;;4979363;28;20038;-67
2023/11/30 06:42:54;;;;;;;11.30;5.93;;;-0.20;99.90;;;;;;4986814;28;20775;-67
2023/11/30 06:45:20;;;;;;;11.25;5.57;;;-0.20;99.90;;;;;;4981744;28;20026;-67
2023/11/30 06:47:46;;;;;;;10.48;5.25;;;-0.20;99.90;;;;;;4988397;28;20038;-67
2023/11/30 06:50:12;;;;;;;17.95;6.60;;;-0.20;99.90;;;;;;4990077;28;20038;-67
2023/11/30 06:52:38;;;;;;;10.73;5.07;;;-0.20;99.90;;;;;;4990296;28;20117;-66
2023/11/30 06:55:04;;;;;;;10.93;5.65;;;-0.30;99.90;;;;;;4980953;28;20039;-67
2023/11/30 06:57:30;;;;;;;13.63;5.68;;;-0.30;99.90;;;;;;4986486;28;20030;-67
2023/11/30 06:59:56;;;;;;;11.30;5.35;;;-0.30;99.90;;;;;;4980140;28;20038;-66
2023/11/30 07:02:22;;;;;;;10.20;5.28;;;-0.30;99.90;;;;;;4986262;28;20394;-67
2023/11/30 07:04:48;;;;;;;13.35;5.55;;;-0.30;99.90;;;;;;4980784;28;20521;-67
2023/11/30 07:07:14;;;;;;;9.23;5.15;;;-0.30;99.90;;;;;;4985429;28;20077;-67
2023/11/30 07:09:40;;;;;;;14.43;5.65;;;-0.30;99.90;;;;;;4981470;28;20058;-66
2023/11/30 07:12:06;;;;;;;10.43;5.45;;;-0.40;99.90;;;;;;4983578;28;20469;-67
2023/11/30 07:14:32;;;;;;;13.32;6.10;;;-0.30;99.90;;;;;;4984411;28;20078;-67
2023/11/30 07:16:58;;;;;;;11.00;5.20;;;-0.30;99.90;;;;;;4984708;28;20470;-67
2023/11/30 07:19:24;;;;;;;11.70;5.70;;;-0.40;99.90;;;;;;4989004;28;20037;-66
2023/11/30 07:21:50;;;;;;;11.32;5.30;;;-0.40;99.90;;;;;;4985322;28;20019;-67
2023/11/30 07:24:16;;;;;;;11.57;5.68;;;-0.40;99.90;;;;;;4986186;28;20841;-67
2023/11/30 07:26:41;;;;;;;10.85;5.65;;;-0.30;99.90;;;;;;4982028;28;20518;-68
2023/11/30 07:29:09;;;;;;;11.00;5.65;;;-0.30;99.90;;;;;;4985580;28;20050;-67
2023/11/30 07:31:35;;;;;;;15.00;5.65;;;-0.20;99.90;;;;;;4981788;28;20056;-67
2023/11/30 07:34:02;;;;;;;11.20;5.72;;;-0.10;99.90;;;;;;4984834;28;20415;-66
2023/11/30 07:36:28;;;;;;;13.55;6.57;;;0.00;99.90;;;;;;4976412;28;20087;-67
2023/11/30 07:38:54;;;;;;;14.88;6.85;;;0.10;99.90;;;;;;4985053;28;20038;-67
2023/11/30 07:41:20;;;;;;;15.60;6.57;;;0.20;99.90;;;;;;4982583;28;20394;-67
2023/11/30 07:43:45;;;;;;;15.85;6.50;;;0.30;99.90;;;;;;4982895;28;20080;-67
2023/11/30 07:46:11;;;;;;;13.77;6.72;;;0.40;99.90;;;;;;4981154;28;20041;-67
2023/11/30 07:48:37;;;;;;;11.00;5.75;;;0.40;99.90;;;;;;4988661;28;20034;-67
2023/11/30 07:51:03;;;;;;;11.48;5.95;;;0.50;99.90;;;;;;4978464;28;20098;-67
2023/11/30 07:53:29;;;;;;;14.73;6.65;;;0.60;99.90;;;;;;4989507;28;20502;-70
2023/11/30 07:55:56;;;;;;;10.50;5.63;;;0.60;99.90;;;;;;4977618;28;20030;-70
2023/11/30 07:58:23;;;;;;;14.82;6.78;;;0.70;99.90;;;;;;4984008;28;20038;-66
2023/11/30 08:00:49;;;;;;;11.65;5.88;;;0.70;99.90;;;;;;4978756;28;20039;-65
2023/11/30 08:03:15;;;;;;;14.23;5.70;;;0.70;99.90;;;;;;4991095;28;20486;-66
2023/11/30 08:05:43;;;;;;;14.13;6.25;;;0.70;99.90;;;;;;4982833;28;20049;-68
2023/11/30 08:08:10;;;;;;;13.75;6.30;;;0.80;99.90;;;;;;4983343;28;20574;-65
2023/11/30 08:10:36;;;;;;;12.85;6.65;;;0.90;99.90;;;;;;4986679;28;20054;-66
2023/11/30 08:13:02;;;;;;;12.85;6.38;;;0.90;99.90;;;;;;4981197;28;20046;-66
2023/11/30 08:15:29;;;;;;;13.45;6.75;;;1.00;99.90;;;;;;4984223;28;20045;-67
2023/11/30 08:17:55;;;;;;;11.95;6.03;;;1.00;99.90;;;;;;4983542;28;20498;-73
2023/11/30 08:20:21;;;;;;;12.15;6.07;;;1.10;99.90;;;;;;4983568;28;20026;-73
2023/11/30 08:22:47;;;;;;;13.25;6.57;;;1.20;99.90;;;;;;4992319;28;20684;-66
2023/11/30 08:25:15;;;;;;;16.88;7.63;;;1.20;99.90;;;;;;4985558;28;20030;-66
2023/11/30 08:27:42;;;;;;;13.40;7.35;;;1.30;99.90;;;;;;4984230;28;20050;-65
2023/11/30 08:30:11;;;;;;;20.98;8.25;;;1.30;99.90;;;;;;4982421;28;20057;-66
2023/11/30 08:32:37;;;;;;;21.40;10.77;;;1.30;99.90;;;;;;4984602;28;20041;-67
2023/11/30 08:35:04;;;;;;;22.35;8.85;;;1.30;99.90;;;;;;4985358;28;20034;-64
2023/11/30 08:37:30;;;;;;;17.85;7.35;;;1.30;99.90;;;;;;4985223;28;20385;-67
2023/11/30 08:39:56;;;;;;;12.95;6.95;;;1.30;99.90;;;;;;4985862;28;20031;-67
2023/11/30 08:42:23;;;;;;;12.50;6.88;;;1.40;99.90;;;;;;4985485;28;20121;-66
2023/11/30 08:44:48;;;;;;;12.77;5.72;;;1.40;99.90;;;;;;4988508;28;20472;-67
2023/11/30 08:47:14;;;;;;;13.63;6.68;;;1.50;99.90;;;;;;4984103;28;20034;-67
2023/11/30 08:49:40;;;;;;;15.88;7.32;;;1.60;99.90;;;;;;4989413;28;20093;-67
2023/11/30 08:52:06;;;;;;;14.63;7.05;;;1.60;99.90;;;;;;4982503;28;20855;-67
2023/11/30 08:54:32;;;;;;;14.00;6.13;;;1.70;99.90;;;;;;4991666;28;20560;-67
2023/11/30 08:56:58;;;;;;;15.18;5.97;;;1.70;99.90;;;;;;4980555;28;20037;-66
2023/11/30 08:59:24;;;;;;;14.10;6.40;;;1.80;99.90;;;;;;5003406;28;20401;-66
2023/11/30 09:01:50;;;;;;;13.38;6.45;;;1.90;99.90;;;;;;4980607;28;20058;-66
2023/11/30 09:04:17;;;;;;;11.23;6.20;;;2.00;99.90;;;;;;4993071;28;20034;-67
2023/11/30 09:06:42;;;;;;;12.20;5.72;;;2.00;99.90;;;;;;4982473;28;20104;-67
2023/11/30 09:09:08;;;;;;;14.18;6.30;;;2.10;99.90;;;;;;4992062;28;20403;-66
2023/11/30 09:11:35;;;;;;;14.52;6.25;;;2.30;99.90;;;;;;4985967;28;20038;-67
2023/11/30 09:14:01;;;;;;;9.90;5.20;;;2.50;99.90;;;;;;4991573;28;20113;-67
2023/11/30 09:16:27;;;;;;;14.23;6.63;;;3.20;99.90;;;;;;4987945;28;20058;-67
2023/11/30 09:18:56;;;;;;;12.80;6.15;;;3.70;99.90;;;;;;4983447;28;20074;-67
2023/11/30 09:21:23;;;;;;;12.13;6.25;;;3.80;99.90;;;;;;4980001;28;20035;-67
2023/11/30 09:23:49;;;;;;;12.13;6.25;;;3.90;99.90;;;;;;4978673;28;20034;-67
2023/11/30 09:26:15;;;;;;;13.57;6.40;;;4.10;99.60;;;;;;4980811;28;20520;-67
2023/11/30 09:28:41;;;;;;;13.73;7.43;;;4.10;99.20;;;;;;4980038;28;20049;-66
2023/11/30 09:31:07;;;;;;;9.93;6.30;;;4.10;99.20;;;;;;4982386;28;20045;-67
2023/11/30 09:33:33;;;;;;;12.13;7.00;;;4.10;99.30;;;;;;4981677;28;20121;-67
2023/11/30 09:35:59;;;;;;;14.48;7.35;;;4.40;98.60;;;;;;4982285;28;20125;-67
2023/11/30 09:38:25;;;;;;;14.68;7.22;;;4.50;98.50;;;;;;4979674;28;20469;-67
2023/11/30 09:40:54;;;;;;;13.65;6.40;;;4.90;98.20;;;;;;4984704;28;20022;-67
2023/11/30 09:43:20;;;;;;;15.10;6.70;;;5.10;97.50;;;;;;4983858;28;20032;-66
2023/11/30 09:45:47;;;;;;;13.20;6.15;;;5.10;97.00;;;;;;4985950;28;20034;-66
2023/11/30 09:48:14;;;;;;;15.45;6.30;;;5.10;97.60;;;;;;4982079;28;20041;-66
2023/11/30 09:50:40;;;;;;;14.90;7.90;;;5.00;97.70;;;;;;4987013;28;20104;-66
2023/11/30 09:53:08;;;;;;;13.25;7.35;;;5.00;97.50;;;;;;4979120;28;20427;-66
2023/11/30 09:55:35;;;;;;;13.23;7.47;;;5.00;97.70;;;;;;4983027;28;20225;-65
2023/11/30 09:58:01;;;;;;;12.93;6.80;;;5.10;97.60;;;;;;4978683;28;20035;-66
2023/11/30 10:00:26;;;;;;;11.52;6.40;;;5.50;96.90;;;;;;4989702;28;20057;-65
2023/11/30 10:02:59;;;;;;;11.57;6.07;;;5.70;95.90;;;;;;4976578;28;20046;-65
2023/11/30 10:05:28;;;;;;;11.02;6.38;;;5.70;95.60;;;;;;4986545;28;20053;-66
2023/11/30 10:07:58;;;;;;;11.98;6.10;;;5.70;95.80;;;;;;4978164;28;20860;-64
2023/11/30 10:10:27;;;;;;;13.00;6.65;;;5.60;96.00;;;;;;4985347;28;20137;-65
2023/11/30 10:12:53;;;;;;;9.98;5.88;;;5.50;96.10;;;;;;4978530;28;20039;-65
2023/11/30 10:15:22;;;;;;;11.52;6.00;;;5.50;96.20;;;;;;4991408;28;20038;-65
2023/11/30 10:17:49;;;;;;;11.77;6.85;;;5.40;96.30;;;;;;4979227;28;20317;-65
2023/11/30 10:20:16;;;;;;;12.38;6.53;;;5.70;96.60;;;;;;4991253;28;20033;-65
2023/11/30 10:22:41;;;;;;;8.95;5.22;;;6.90;95.20;;;;;;4986423;28;20042;-65
2023/11/30 10:25:09;;;;;;;12.07;4.22;;;8.70;92.10;;;;;;4990564;28;20105;-65
2023/11/30 10:27:40;;;;;;;8.60;5.28;;;10.40;84.00;;;;;;4980971;28;20065;-65
2023/11/30 10:30:10;;;;;;;6.00;3.50;;;12.00;74.50;;;;;;4982586;28;20034;-65
2023/11/30 10:32:39;;;;;;;9.43;4.93;;;12.60;69.60;;;;;;4985531;28;20614;-65
2023/11/30 10:35:06;;;;;;;7.57;4.90;;;11.90;69.00;;;;;;4982960;28;20112;-65
2023/11/30 10:37:47;;;;;;;10.95;5.18;;;10.90;72.00;;;;;;4978872;28;20113;-66
2023/11/30 10:40:15;;;;;;;8.75;5.10;;;10.00;74.00;;;;;;4983574;28;20483;-65
2023/11/30 10:42:45;;;;;;;8.07;4.32;;;9.20;77.70;;;;;;4978500;28;20022;-65
2023/11/30 10:45:14;;;;;;;10.07;4.75;;;10.00;76.60;;;;;;4984778;28;20084;-65
2023/11/30 10:47:42;;;;;;;7.50;4.35;;;11.90;71.00;;;;;;4975974;28;20525;-65
2023/11/30 10:50:11;;;;;;;10.10;4.45;;;13.00;65.40;;;;;;4975951;28;20475;-65
2023/11/30 10:52:38;;;;;;;8.93;4.85;;;13.50;63.70;;;;;;4977685;28;20520;-65
2023/11/30 10:55:11;;;;;;;8.18;4.30;;;14.30;60.70;;;;;;4979135;28;20034;-75
2023/11/30 10:57:44;;;;;;;7.32;4.50;;;14.00;60.10;;;;;;4981908;28;20045;-73
2023/11/30 11:00:15;;;;;;;7.38;4.38;;;13.10;60.90;;;;;;4983701;28;20407;-73
2023/11/30 11:02:46;;;;;;;6.57;3.58;;;13.10;61.10;;;;;;4984104;28;20022;-72
2023/11/30 11:05:14;;;;;;;6.03;3.38;;;13.10;60.60;;;;;;4981605;28;20126;-73
2023/11/30 11:07:45;;;;;;;4.72;2.35;;;12.10;62.50;;;;;;4997626;28;20061;-72
2023/11/30 11:10:20;;;;;;;5.22;2.80;;;10.80;65.00;;;;;;4993052;28;20745;-73
2023/11/30 11:12:49;;;;;;;6.00;3.03;;;9.40;69.60;;;;;;4992997;28;20041;-73
2023/11/30 11:15:19;;;;;;;5.55;3.20;;;8.30;73.60;;;;;;4985695;28;20041;-73
2023/11/30 11:17:51;;;;;;;4.30;2.65;;;7.50;75.60;;;;;;4987031;28;20038;-71
2023/11/30 11:20:28;;;;;;;7.20;3.65;;;6.90;78.50;;;;;;4986781;28;20044;-64
2023/11/30 11:22:55;;;;;;;8.40;3.47;;;6.50;81.60;;;;;;4982078;28;20125;-65
2023/11/30 11:25:21;;;;;;;5.28;3.15;;;6.20;82.50;;;;;;4980912;28;20025;-65
2023/11/30 11:27:48;;;;;;;5.57;3.38;;;5.90;85.30;;;;;;4978431;28;20105;-65
2023/11/30 11:30:14;;;;;;;6.18;3.45;;;5.70;86.30;;;;;;4981628;28;20062;-65
2023/11/30 11:32:42;;;;;;;10.55;4.18;;;5.60;86.50;;;;;;4979474;28;20046;-65
2023/11/30 11:35:10;;;;;;;7.85;3.80;;;5.50;87.50;;;;;;4985475;28;20030;-64
2023/11/30 11:37:36;;;;;;;8.80;4.43;;;5.40;87.50;;;;;;4983928;28;20472;-64
2023/11/30 11:40:03;;;;;;;9.02;4.05;;;5.30;88.60;;;;;;4975643;28;20031;-64
2023/11/30 11:42:31;;;;;;;7.65;3.53;;;5.20;89.30;;;;;;4982560;28;20049;-64
2023/11/30 11:45:00;;;;;;;6.40;3.92;;;5.00;89.70;;;;;;4978092;28;20053;-65
2023/11/30 11:47:26;;;;;;;10.77;4.65;;;4.90;90.40;;;;;;4974301;28;20022;-64
2023/11/30 11:49:52;;;;;;;10.95;5.43;;;4.80;90.90;;;;;;4973936;28;20065;-65
2023/11/30 11:52:20;;;;;;;11.15;5.03;;;4.80;90.70;;;;;;4980107;28;20666;-65
2023/11/30 11:54:46;;;;;;;10.18;5.53;;;4.70;91.40;;;;;;4981249;28;20034;-64
2023/11/30 11:57:12;;;;;;;9.15;5.00;;;4.80;91.90;;;;;;4986697;28;20027;-65
2023/11/30 11:59:38;;;;;;;8.73;4.72;;;4.70;91.90;;;;;;4979074;28;20495;-65
2023/11/30 12:02:03;;;;;;;8.45;4.60;;;4.70;92.20;;;;;;4982685;28;20046;-65
2023/11/30 12:04:34;;;;;;;8.63;4.60;;;4.60;92.40;;;;;;4977857;28;20034;-65
2023/11/30 12:07:12;;;;;;;6.82;3.95;;;4.50;92.50;;;;;;4984831;28;20038;-65
2023/11/30 12:09:38;;;;;;;8.07;3.58;;;4.40;92.40;;;;;;4976304;28;20129;-65
2023/11/30 12:12:12;;;;;;;6.63;3.05;;;4.40;92.60;;;;;;4985542;28;20125;-64
2023/11/30 12:14:37;;;;;;;6.43;3.55;;;4.30;92.90;;;;;;4976811;28;20044;-65
2023/11/30 12:17:04;;;;;;;6.32;3.10;;;4.30;92.90;;;;;;4978672;28;20035;-65
2023/11/30 12:19:29;;;;;;;7.63;4.05;;;4.20;93.30;;;;;;4978241;28;20027;-64
2023/11/30 12:21:55;;;;;;;9.88;4.25;;;4.00;93.60;;;;;;4987140;28;20473;-65
2023/11/30 12:24:22;;;;;;;7.13;3.90;;;4.00;93.80;;;;;;4980912;28;20046;-65
2023/11/30 12:26:48;;;;;;;10.52;4.93;;;4.00;94.00;;;;;;4984598;28;20035;-65
2023/11/30 12:29:13;;;;;;;9.50;4.10;;;4.00;94.40;;;;;;4980382;28;20832;-64
2023/11/30 12:31:40;;;;;;;7.10;4.10;;;3.90;94.80;;;;;;4984114;28;20049;-65
2023/11/30 12:34:09;;;;;;;6.97;3.97;;;3.80;95.00;;;;;;4979499;28;20076;-65
2023/11/30 12:36:35;;;;;;;8.70;3.80;;;3.80;95.10;;;;;;4982973;28;20093;-65
2023/11/30 12:39:00;;;;;;;10.13;4.35;;;3.70;95.20;;;;;;4975978;28;20030;-64
2023/11/30 12:41:26;;;;;;;8.75;4.43;;;3.60;95.50;;;;;;4979570;28;20037;-64
2023/11/30 12:43:52;;;;;;;8.27;3.95;;;3.60;95.70;;;;;;4978258;28;20141;-65